sensor_id;sensor_type;location;lat;lon;timestamp;pressure;altitude;pressure_sealevel;temperature;humidity
30463;BME280;17256;43.618;25.336;2022-10-23T00:03:35;100872.56;;;13.11;100.00
30463;BME280;17256;43.618;25.336;2022-10-23T00:07:35;100612.56;;;11.50;100.00
30463;BME280;17256;43.618;25.336;2022-10-23T00:11:46;100658.59;;;11.76;100.00
30463;BME280;17256;43.618;25.336;2022-10-23T00:23:58;100861.53;;;13.04;100.00
30463;BME280;17256;43.618;25.336;2022-10-23T00:28:19;100848.19;;;13.08;100.00
30463;BME280;17256;43.618;25.336;2022-10-23T00:32:11;100839.63;;;12.83;100.00
30463;BME280;17256;43.618;25.336;2022-10-23T00:35:18;100843.09;;;13.05;100.00
30463;BME280;17256;43.618;25.336;2022-10-23T00:39:27;100701.75;;;12.17;100.00
30463;BME280;17256;43.618;25.336;2022-10-23T00:42:27;100622.38;;;11.73;100.00
30463;BME280;17256;43.618;25.336;2022-10-23T00:45:33;100558.34;;;11.37;100.00
30463;BME280;17256;43.618;25.336;2022-10-23T00:49:13;100579.34;;;11.52;100.00
30463;BME280;17256;43.618;25.336;2022-10-23T00:52:48;100570.19;;;11.38;100.00
30463;BME280;17256;43.618;25.336;2022-10-23T00:55:20;100635.53;;;11.77;100.00
30463;BME280;17256;43.618;25.336;2022-10-23T00:59:07;100864.94;;;13.00;100.00
30463;BME280;17256;43.618;25.336;2022-10-23T01:02:35;100874.88;;;12.94;100.00
30463;BME280;17256;43.618;25.336;2022-10-23T01:10:33;100863.38;;;12.84;100.00
30463;BME280;17256;43.618;25.336;2022-10-23T01:13:53;100859.72;;;12.63;100.00
30463;BME280;17256;43.618;25.336;2022-10-23T01:17:18;100854.22;;;12.63;100.00
30463;BME280;17256;43.618;25.336;2022-10-23T01:21:15;100628.38;;;11.00;100.00
30463;BME280;17256;43.618;25.336;2022-10-23T01:41:08;100921.44;;;11.51;100.00
30463;BME280;17256;43.618;25.336;2022-10-23T01:48:59;100669.75;;;10.07;100.00
30463;BME280;17256;43.618;25.336;2022-10-23T01:52:49;100928.91;;;11.78;100.00
30463;BME280;17256;43.618;25.336;2022-10-23T02:04:20;100925.03;;;12.28;100.00
30463;BME280;17256;43.618;25.336;2022-10-23T02:07:29;100935.09;;;12.43;100.00
30463;BME280;17256;43.618;25.336;2022-10-23T02:11:16;100948.50;;;12.59;100.00
30463;BME280;17256;43.618;25.336;2022-10-23T02:18:50;100949.47;;;12.79;100.00
30463;BME280;17256;43.618;25.336;2022-10-23T02:22:36;100951.25;;;13.00;100.00
30463;BME280;17256;43.618;25.336;2022-10-23T02:29:42;100871.28;;;13.07;100.00
30463;BME280;17256;43.618;25.336;2022-10-23T02:33:23;100947.41;;;13.95;100.00
30463;BME280;17256;43.618;25.336;2022-10-23T02:36:32;100822.78;;;13.45;96.82
30463;BME280;17256;43.618;25.336;2022-10-23T02:39:54;100945.16;;;14.70;92.68
30463;BME280;17256;43.618;25.336;2022-10-23T02:43:23;100956.53;;;14.93;90.75
30463;BME280;17256;43.618;25.336;2022-10-23T02:49:43;100970.84;;;15.66;84.58
30463;BME280;17256;43.618;25.336;2022-10-23T02:57:38;100571.59;;;13.72;79.06
30463;BME280;17256;43.618;25.336;2022-10-23T03:01:10;100972.44;;;16.49;76.90
30463;BME280;17256;43.618;25.336;2022-10-23T03:04:34;100976.22;;;16.54;76.31
30463;BME280;17256;43.618;25.336;2022-10-23T03:07:17;100839.56;;;15.74;75.46
30463;BME280;17256;43.618;25.336;2022-10-23T03:10:51;100983.38;;;16.69;75.09
30463;BME280;17256;43.618;25.336;2022-10-23T03:14:53;100645.72;;;14.44;75.53
30463;BME280;17256;43.618;25.336;2022-10-23T03:17:20;100641.25;;;14.37;75.27
30463;BME280;17256;43.618;25.336;2022-10-23T03:28:02;100625.41;;;14.26;77.61
30463;BME280;17256;43.618;25.336;2022-10-23T03:35:34;100991.09;;;16.42;79.41
30463;BME280;17256;43.618;25.336;2022-10-23T04:04:46;101032.22;;;16.20;88.83
30463;BME280;17256;43.618;25.336;2022-10-23T04:08:14;101036.06;;;16.19;90.37
30463;BME280;17256;43.618;25.336;2022-10-23T04:16:23;100757.91;;;14.52;95.15
30463;BME280;17256;43.618;25.336;2022-10-23T04:24:13;100547.00;;;13.19;100.00
30463;BME280;17256;43.618;25.336;2022-10-23T04:32:33;100961.06;;;15.64;100.00
30463;BME280;17256;43.618;25.336;2022-10-23T05:19:16;101085.69;;;16.77;100.00
30463;BME280;17256;43.618;25.336;2022-10-23T05:26:26;101099.34;;;16.97;100.00
30463;BME280;17256;43.618;25.336;2022-10-23T05:30:19;101128.25;;;17.07;100.00
30463;BME280;17256;43.618;25.336;2022-10-23T05:33:11;101008.38;;;16.62;100.00
30463;BME280;17256;43.618;25.336;2022-10-23T05:36:38;100763.59;;;14.95;100.00
30463;BME280;17256;43.618;25.336;2022-10-23T05:39:46;100734.72;;;14.85;100.00
30463;BME280;17256;43.618;25.336;2022-10-23T05:46:16;101169.47;;;17.65;100.00
30463;BME280;17256;43.618;25.336;2022-10-23T05:49:10;101086.66;;;17.26;100.00
30463;BME280;17256;43.618;25.336;2022-10-23T05:52:20;100719.41;;;15.14;100.00
30463;BME280;17256;43.618;25.336;2022-10-23T05:55:30;100745.13;;;15.39;100.00
30463;BME280;17256;43.618;25.336;2022-10-23T05:58:31;101169.03;;;17.87;100.00
30463;BME280;17256;43.618;25.336;2022-10-23T06:01:29;101150.44;;;17.87;100.00
30463;BME280;17256;43.618;25.336;2022-10-23T06:08:13;101060.09;;;17.30;100.00
30463;BME280;17256;43.618;25.336;2022-10-23T06:11:11;101151.88;;;17.90;100.00
30463;BME280;17256;43.618;25.336;2022-10-23T06:18:18;100874.72;;;16.35;100.00
30463;BME280;17256;43.618;25.336;2022-10-23T06:21:34;100957.00;;;16.78;100.00
30463;BME280;17256;43.618;25.336;2022-10-23T06:28:17;101023.19;;;17.29;100.00
30463;BME280;17256;43.618;25.336;2022-10-23T06:30:57;100921.94;;;16.83;100.00
30463;BME280;17256;43.618;25.336;2022-10-23T06:33:31;101084.19;;;17.84;100.00
30463;BME280;17256;43.618;25.336;2022-10-23T06:36:02;100911.09;;;16.82;100.00
30463;BME280;17256;43.618;25.336;2022-10-23T06:38:31;100810.06;;;16.23;100.00
30463;BME280;17256;43.618;25.336;2022-10-23T06:41:40;101197.78;;;18.82;100.00
30463;BME280;17256;43.618;25.336;2022-10-23T06:44:31;100951.31;;;17.39;100.00
30463;BME280;17256;43.618;25.336;2022-10-23T06:47:15;101219.34;;;18.98;100.00
30463;BME280;17256;43.618;25.336;2022-10-23T06:50:23;101037.25;;;18.06;99.96
30463;BME280;17256;43.618;25.336;2022-10-23T06:53:52;101215.16;;;19.19;98.14
30463;BME280;17256;43.618;25.336;2022-10-23T06:56:40;100951.38;;;17.63;96.94
30463;BME280;17256;43.618;25.336;2022-10-23T06:59:44;101027.09;;;18.00;97.19
30463;BME280;17256;43.618;25.336;2022-10-23T07:02:17;101223.72;;;19.29;95.88
30463;BME280;17256;43.618;25.336;2022-10-23T07:05:07;101080.75;;;18.42;95.72
30463;BME280;17256;43.618;25.336;2022-10-23T07:07:48;100812.50;;;16.98;94.04
30463;BME280;17256;43.618;25.336;2022-10-23T07:10:24;100930.00;;;17.63;93.32
30463;BME280;17256;43.618;25.336;2022-10-23T07:12:57;100909.63;;;17.69;92.39
30463;BME280;17256;43.618;25.336;2022-10-23T07:15:39;100999.31;;;18.00;92.37
30463;BME280;17256;43.618;25.336;2022-10-23T07:18:14;100869.47;;;17.42;90.81
30463;BME280;17256;43.618;25.336;2022-10-23T07:21:06;101237.66;;;19.53;91.01
30463;BME280;17256;43.618;25.336;2022-10-23T07:23:39;100791.38;;;16.97;89.43
30463;BME280;17256;43.618;25.336;2022-10-23T07:26:15;101099.66;;;18.75;89.65
30463;BME280;17256;43.618;25.336;2022-10-23T07:28:52;100985.69;;;18.22;88.42
30463;BME280;17256;43.618;25.336;2022-10-23T07:31:41;100982.31;;;18.31;86.85
30463;BME280;17256;43.618;25.336;2022-10-23T07:34:32;100977.47;;;18.27;86.50
30463;BME280;17256;43.618;25.336;2022-10-23T07:37:19;101004.81;;;18.53;85.54
30463;BME280;17256;43.618;25.336;2022-10-23T07:40:08;101262.34;;;20.08;84.92
30463;BME280;17256;43.618;25.336;2022-10-23T07:42:46;101238.31;;;20.07;83.68
30463;BME280;17256;43.618;25.336;2022-10-23T07:45:20;101200.72;;;19.57;83.25
30463;BME280;17256;43.618;25.336;2022-10-23T07:47:50;100945.69;;;18.11;83.42
30463;BME280;17256;43.618;25.336;2022-10-23T07:50:43;100898.53;;;17.81;83.51
30463;BME280;17256;43.618;25.336;2022-10-23T07:53:23;101263.59;;;20.28;81.48
30463;BME280;17256;43.618;25.336;2022-10-23T07:56:24;101156.78;;;19.59;80.98
30463;BME280;17256;43.618;25.336;2022-10-23T07:59:34;100992.03;;;18.64;80.76
30463;BME280;17256;43.618;25.336;2022-10-23T08:02:10;101040.25;;;18.81;79.91
30463;BME280;17256;43.618;25.336;2022-10-23T08:04:43;100904.00;;;18.23;79.43
30463;BME280;17256;43.618;25.336;2022-10-23T08:07:24;100879.69;;;18.18;77.17
30463;BME280;17256;43.618;25.336;2022-10-23T08:10:02;101079.31;;;19.21;77.52
30463;BME280;17256;43.618;25.336;2022-10-23T08:13:10;101269.03;;;20.92;75.23
30463;BME280;17256;43.618;25.336;2022-10-23T08:16:06;101265.06;;;21.05;73.77
30463;BME280;17256;43.618;25.336;2022-10-23T08:19:32;101107.72;;;20.15;73.18
30463;BME280;17256;43.618;25.336;2022-10-23T08:22:07;101059.34;;;19.93;72.57
30463;BME280;17256;43.618;25.336;2022-10-23T08:24:43;100857.81;;;18.85;71.40
30463;BME280;17256;43.618;25.336;2022-10-23T08:27:35;101264.16;;;21.16;71.60
30463;BME280;17256;43.618;25.336;2022-10-23T08:30:27;101266.56;;;21.24;71.29
30463;BME280;17256;43.618;25.336;2022-10-23T08:33:04;101267.03;;;21.21;70.68
30463;BME280;17256;43.618;25.336;2022-10-23T08:35:36;100859.69;;;18.68;69.79
30463;BME280;17256;43.618;25.336;2022-10-23T08:38:37;101066.91;;;20.09;69.05
30463;BME280;17256;43.618;25.336;2022-10-23T08:44:47;101183.75;;;21.01;68.03
30463;BME280;17256;43.618;25.336;2022-10-23T08:47:54;101100.78;;;20.46;68.54
30463;BME280;17256;43.618;25.336;2022-10-23T08:51:21;100932.22;;;19.58;66.34
30463;BME280;17256;43.618;25.336;2022-10-23T08:55:04;101056.19;;;20.35;66.30
30463;BME280;17256;43.618;25.336;2022-10-23T08:58:16;101163.25;;;21.29;65.48
30463;BME280;17256;43.618;25.336;2022-10-23T09:00:54;100935.59;;;19.94;65.12
30463;BME280;17256;43.618;25.336;2022-10-23T09:03:29;101044.91;;;20.58;65.20
30463;BME280;17256;43.618;25.336;2022-10-23T09:12:20;101147.78;;;21.38;63.10
30463;BME280;17256;43.618;25.336;2022-10-23T09:18:01;101135.44;;;21.34;63.04
30463;BME280;17256;43.618;25.336;2022-10-23T09:20:57;101021.88;;;20.68;62.54
30463;BME280;17256;43.618;25.336;2022-10-23T09:23:42;101029.09;;;20.47;61.96
30463;BME280;17256;43.618;25.336;2022-10-23T09:26:34;100900.63;;;19.86;62.23
30463;BME280;17256;43.618;25.336;2022-10-23T09:32:03;101043.66;;;20.87;62.72
30463;BME280;17256;43.618;25.336;2022-10-23T09:34:53;101096.19;;;21.07;62.04
30463;BME280;17256;43.618;25.336;2022-10-23T09:37:45;101148.06;;;21.59;62.06
30463;BME280;17256;43.618;25.336;2022-10-23T09:40:41;101269.69;;;22.44;61.98
30463;BME280;17256;43.618;25.336;2022-10-23T09:43:22;100920.69;;;20.39;61.26
30463;BME280;17256;43.618;25.336;2022-10-23T09:46:49;100911.31;;;20.45;60.34
30463;BME280;17256;43.618;25.336;2022-10-23T09:49:34;101045.66;;;21.09;60.45
30463;BME280;17256;43.618;25.336;2022-10-23T09:52:34;101268.75;;;22.60;60.97
30463;BME280;17256;43.618;25.336;2022-10-23T09:55:35;101134.19;;;21.69;59.78
30463;BME280;17256;43.618;25.336;2022-10-23T09:58:31;100891.78;;;20.45;59.45
30463;BME280;17256;43.618;25.336;2022-10-23T10:01:50;101254.22;;;22.63;60.39
30463;BME280;17256;43.618;25.336;2022-10-23T10:05:31;100949.53;;;20.83;59.77
30463;BME280;17256;43.618;25.336;2022-10-23T10:08:47;101052.84;;;21.43;59.28
30463;BME280;17256;43.618;25.336;2022-10-23T10:11:49;101060.22;;;21.55;59.15
30463;BME280;17256;43.618;25.336;2022-10-23T10:18:46;101081.06;;;21.91;58.22
30463;BME280;17256;43.618;25.336;2022-10-23T10:22:04;100894.19;;;21.02;58.03
30463;BME280;17256;43.618;25.336;2022-10-23T10:37:12;101223.09;;;23.13;57.16
30463;BME280;17256;43.618;25.336;2022-10-23T10:40:09;101229.41;;;23.30;56.53
30463;BME280;17256;43.618;25.336;2022-10-23T10:52:50;100896.78;;;21.57;54.76
30463;BME280;17256;43.618;25.336;2022-10-23T10:55:45;101210.56;;;23.63;54.74
30463;BME280;17256;43.618;25.336;2022-10-23T11:01:07;101120.22;;;23.09;55.33
30463;BME280;17256;43.618;25.336;2022-10-23T11:07:10;100825.06;;;21.36;54.97
30463;BME280;17256;43.618;25.336;2022-10-23T11:10:21;101226.41;;;23.89;54.13
30463;BME280;17256;43.618;25.336;2022-10-23T11:13:14;100738.81;;;20.85;53.82
30463;BME280;17256;43.618;25.336;2022-10-23T11:16:13;100810.00;;;21.15;53.84
30463;BME280;17256;43.618;25.336;2022-10-23T11:25:30;100804.84;;;21.02;53.72
30463;BME280;17256;43.618;25.336;2022-10-23T11:32:02;101201.59;;;23.61;53.39
30463;BME280;17256;43.618;25.336;2022-10-23T11:35:13;100841.00;;;21.40;52.95
30463;BME280;17256;43.618;25.336;2022-10-23T11:38:16;101181.19;;;23.76;52.75
30463;BME280;17256;43.618;25.336;2022-10-23T11:41:56;101124.78;;;23.20;52.71
30463;BME280;17256;43.618;25.336;2022-10-23T11:45:03;101201.16;;;23.84;52.56
30463;BME280;17256;43.618;25.336;2022-10-23T11:48:43;101191.91;;;23.89;52.80
30463;BME280;17256;43.618;25.336;2022-10-23T11:51:45;100840.09;;;21.62;51.80
30463;BME280;17256;43.618;25.336;2022-10-23T11:54:46;100838.22;;;21.77;51.38
30463;BME280;17256;43.618;25.336;2022-10-23T11:57:31;101172.19;;;23.74;51.66
30463;BME280;17256;43.618;25.336;2022-10-23T12:00:23;100758.78;;;21.31;51.39
30463;BME280;17256;43.618;25.336;2022-10-23T12:07:13;101170.78;;;23.76;51.85
30463;BME280;17256;43.618;25.336;2022-10-23T12:10:25;101162.38;;;23.76;51.63
30463;BME280;17256;43.618;25.336;2022-10-23T12:16:47;101037.56;;;23.06;51.80
30463;BME280;17256;43.618;25.336;2022-10-23T12:23:05;101218.19;;;23.78;52.34
30463;BME280;17256;43.618;25.336;2022-10-23T12:34:28;101173.56;;;23.66;53.67
30463;BME280;17256;43.618;25.336;2022-10-23T12:37:18;101163.19;;;23.61;53.92
30463;BME280;17256;43.618;25.336;2022-10-23T12:39:54;101071.09;;;22.91;54.05
30463;BME280;17256;43.618;25.336;2022-10-23T12:42:29;100768.09;;;21.10;54.10
30463;BME280;17256;43.618;25.336;2022-10-23T12:45:16;101164.47;;;23.54;53.72
30463;BME280;17256;43.618;25.336;2022-10-23T12:47:45;101056.91;;;22.70;53.32
30463;BME280;17256;43.618;25.336;2022-10-23T12:50:31;100933.88;;;22.06;53.82
30463;BME280;17256;43.618;25.336;2022-10-23T12:53:03;101007.22;;;22.51;54.30
30463;BME280;17256;43.618;25.336;2022-10-23T12:55:52;100797.47;;;21.44;53.92
30463;BME280;17256;43.618;25.336;2022-10-23T13:01:05;100963.44;;;22.34;54.01
30463;BME280;17256;43.618;25.336;2022-10-23T13:03:47;100865.81;;;21.64;54.62
30463;BME280;17256;43.618;25.336;2022-10-23T13:06:31;101167.78;;;23.41;54.24
30463;BME280;17256;43.618;25.336;2022-10-23T13:09:00;101171.47;;;23.46;54.14
30463;BME280;17256;43.618;25.336;2022-10-23T13:11:42;101008.75;;;22.31;54.22
30463;BME280;17256;43.618;25.336;2022-10-23T13:14:28;101039.34;;;22.43;53.96
30463;BME280;17256;43.618;25.336;2022-10-23T13:17:08;100929.72;;;21.82;53.78
30463;BME280;17256;43.618;25.336;2022-10-23T13:19:36;101170.47;;;23.25;53.84
30463;BME280;17256;43.618;25.336;2022-10-23T13:22:24;101043.06;;;22.54;53.43
30463;BME280;17256;43.618;25.336;2022-10-23T13:24:57;100861.97;;;21.16;53.83
30463;BME280;17256;43.618;25.336;2022-10-23T13:27:33;100908.03;;;21.35;54.83
30463;BME280;17256;43.618;25.336;2022-10-23T13:30:23;100828.47;;;20.67;54.90
30463;BME280;17256;43.618;25.336;2022-10-23T13:32:53;100941.41;;;21.52;54.99
30463;BME280;17256;43.618;25.336;2022-10-23T13:35:23;100792.00;;;20.52;55.02
30463;BME280;17256;43.618;25.336;2022-10-23T13:38:07;100891.78;;;21.10;55.01
30463;BME280;17256;43.618;25.336;2022-10-23T13:40:39;101174.63;;;22.81;55.44
30463;BME280;17256;43.618;25.336;2022-10-23T13:43:13;100952.78;;;21.40;55.61
30463;BME280;17256;43.618;25.336;2022-10-23T13:45:50;101059.34;;;22.03;55.86
30463;BME280;17256;43.618;25.336;2022-10-23T13:48:26;101173.16;;;22.78;56.09
30463;BME280;17256;43.618;25.336;2022-10-23T13:51:11;100783.59;;;20.30;56.19
30463;BME280;17256;43.618;25.336;2022-10-23T13:53:41;100810.69;;;20.51;56.72
30463;BME280;17256;43.618;25.336;2022-10-23T13:56:16;100858.69;;;20.75;56.53
30463;BME280;17256;43.618;25.336;2022-10-23T13:58:49;101033.03;;;21.72;57.02
30463;BME280;17256;43.618;25.336;2022-10-23T14:01:25;100932.75;;;21.05;57.42
30463;BME280;17256;43.618;25.336;2022-10-23T14:03:55;100915.63;;;20.96;57.34
30463;BME280;17256;43.618;25.336;2022-10-23T14:06:27;100802.69;;;20.16;57.56
30463;BME280;17256;43.618;25.336;2022-10-23T14:09:02;100797.22;;;20.26;57.55
30463;BME280;17256;43.618;25.336;2022-10-23T14:11:35;101174.22;;;22.40;57.72
30463;BME280;17256;43.618;25.336;2022-10-23T14:14:06;101168.50;;;22.30;58.36
30463;BME280;17256;43.618;25.336;2022-10-23T14:17:03;100900.97;;;20.62;58.28
30463;BME280;17256;43.618;25.336;2022-10-23T14:19:32;100930.94;;;20.72;58.78
30463;BME280;17256;43.618;25.336;2022-10-23T14:22:04;100946.66;;;20.78;58.47
30463;BME280;17256;43.618;25.336;2022-10-23T14:24:32;100974.47;;;20.89;59.10
30463;BME280;17256;43.618;25.336;2022-10-23T14:27:03;100740.88;;;19.30;59.93
30463;BME280;17256;43.618;25.336;2022-10-23T14:29:36;101012.50;;;20.96;59.45
30463;BME280;17256;43.618;25.336;2022-10-23T14:32:04;100789.66;;;19.50;59.58
30463;BME280;17256;43.618;25.336;2022-10-23T14:34:53;100730.28;;;19.11;59.59
30463;BME280;17256;43.618;25.336;2022-10-23T14:37:26;100793.13;;;19.40;60.00
30463;BME280;17256;43.618;25.336;2022-10-23T14:39:52;101164.22;;;21.78;59.86
30463;BME280;17256;43.618;25.336;2022-10-23T14:42:19;101056.47;;;21.05;60.03
30463;BME280;17256;43.618;25.336;2022-10-23T14:44:48;100919.47;;;20.13;60.47
30463;BME280;17256;43.618;25.336;2022-10-23T14:47:21;100935.25;;;20.07;60.44
30463;BME280;17256;43.618;25.336;2022-10-23T14:49:51;101026.28;;;20.64;60.26
30463;BME280;17256;43.618;25.336;2022-10-23T14:52:19;100984.97;;;20.44;60.82
30463;BME280;17256;43.618;25.336;2022-10-23T14:54:45;100788.38;;;19.24;60.85
30463;BME280;17256;43.618;25.336;2022-10-23T14:57:17;100908.41;;;19.67;61.04
30463;BME280;17256;43.618;25.336;2022-10-23T14:59:46;100759.81;;;18.83;60.79
30463;BME280;17256;43.618;25.336;2022-10-23T15:02:16;100785.09;;;18.82;61.45
30463;BME280;17256;43.618;25.336;2022-10-23T15:04:48;100903.72;;;19.56;61.29
30463;BME280;17256;43.618;25.336;2022-10-23T15:07:16;101073.41;;;20.60;61.79
30463;BME280;17256;43.618;25.336;2022-10-23T15:09:43;100892.88;;;19.43;61.65
30463;BME280;17256;43.618;25.336;2022-10-23T15:12:11;100916.50;;;19.41;62.02
30463;BME280;17256;43.618;25.336;2022-10-23T15:14:42;100895.28;;;19.23;62.20
30463;BME280;17256;43.618;25.336;2022-10-23T15:17:08;100831.78;;;18.63;62.65
30463;BME280;17256;43.618;25.336;2022-10-23T15:19:37;100751.72;;;18.13;62.82
30463;BME280;17256;43.618;25.336;2022-10-23T15:22:05;101084.22;;;20.11;62.96
30463;BME280;17256;43.618;25.336;2022-10-23T15:24:33;100916.06;;;19.03;63.15
30463;BME280;17256;43.618;25.336;2022-10-23T15:27:07;100899.41;;;18.92;63.15
30463;BME280;17256;43.618;25.336;2022-10-23T15:29:34;100972.97;;;19.36;63.85
30463;BME280;17256;43.618;25.336;2022-10-23T15:32:05;100921.94;;;18.90;63.66
30463;BME280;17256;43.618;25.336;2022-10-23T15:34:35;101041.72;;;19.59;63.73
30463;BME280;17256;43.618;25.336;2022-10-23T15:37:05;100809.84;;;18.14;63.89
30463;BME280;17256;43.618;25.336;2022-10-23T15:39:35;100762.66;;;17.79;64.18
30463;BME280;17256;43.618;25.336;2022-10-23T15:42:08;101175.94;;;20.24;64.39
30463;BME280;17256;43.618;25.336;2022-10-23T15:44:40;101133.72;;;20.04;64.11
30463;BME280;17256;43.618;25.336;2022-10-23T15:47:30;100741.75;;;17.65;63.91
30463;BME280;17256;43.618;25.336;2022-10-23T15:50:15;100889.47;;;18.44;64.39
30463;BME280;17256;43.618;25.336;2022-10-23T15:52:46;101042.00;;;19.34;64.58
30463;BME280;17256;43.618;25.336;2022-10-23T15:55:16;100959.69;;;18.74;65.09
30463;BME280;17256;43.618;25.336;2022-10-23T15:57:50;101047.13;;;19.14;65.07
30463;BME280;17256;43.618;25.336;2022-10-23T16:00:24;100929.94;;;18.52;65.25
30463;BME280;17256;43.618;25.336;2022-10-23T16:02:53;101103.72;;;19.43;65.42
30463;BME280;17256;43.618;25.336;2022-10-23T16:05:32;101048.31;;;19.18;65.07
30463;BME280;17256;43.618;25.336;2022-10-23T16:07:59;101140.88;;;19.48;65.70
30463;BME280;17256;43.618;25.336;2022-10-23T16:10:29;100933.59;;;18.29;66.04
30463;BME280;17256;43.618;25.336;2022-10-23T16:12:55;100886.31;;;17.82;66.27
30463;BME280;17256;43.618;25.336;2022-10-23T16:15:27;100826.25;;;17.58;66.25
30463;BME280;17256;43.618;25.336;2022-10-23T16:17:55;100890.69;;;17.90;66.85
30463;BME280;17256;43.618;25.336;2022-10-23T16:20:27;100884.47;;;17.64;66.79
30463;BME280;17256;43.618;25.336;2022-10-23T16:22:58;100811.34;;;17.17;67.46
30463;BME280;17256;43.618;25.336;2022-10-23T16:25:27;100962.25;;;18.18;68.18
30463;BME280;17256;43.618;25.336;2022-10-23T16:28:06;100940.13;;;17.88;68.62
30463;BME280;17256;43.618;25.336;2022-10-23T16:30:52;101079.09;;;18.64;68.90
30463;BME280;17256;43.618;25.336;2022-10-23T16:33:33;101045.91;;;18.51;69.63
30463;BME280;17256;43.618;25.336;2022-10-23T16:36:07;100813.00;;;17.06;70.18
30463;BME280;17256;43.618;25.336;2022-10-23T16:38:54;100988.09;;;18.06;70.44
30463;BME280;17256;43.618;25.336;2022-10-23T16:41:42;100867.66;;;17.36;70.49
30463;BME280;17256;43.618;25.336;2022-10-23T16:44:16;101250.53;;;19.54;70.66
30463;BME280;17256;43.618;25.336;2022-10-23T16:46:55;100840.13;;;17.04;70.58
30463;BME280;17256;43.618;25.336;2022-10-23T16:49:22;100800.06;;;16.88;70.36
30463;BME280;17256;43.618;25.336;2022-10-23T16:51:55;101220.69;;;19.31;71.09
30463;BME280;17256;43.618;25.336;2022-10-23T16:54:27;101186.44;;;18.95;71.58
30463;BME280;17256;43.618;25.336;2022-10-23T16:56:58;100893.06;;;17.21;71.54
30463;BME280;17256;43.618;25.336;2022-10-23T16:59:26;100979.44;;;17.73;71.66
30463;BME280;17256;43.618;25.336;2022-10-23T17:01:54;101104.31;;;18.39;71.71
30463;BME280;17256;43.618;25.336;2022-10-23T17:04:23;100877.91;;;17.05;72.04
30463;BME280;17256;43.618;25.336;2022-10-23T17:06:57;100826.88;;;16.76;71.98
30463;BME280;17256;43.618;25.336;2022-10-23T17:09:32;100872.41;;;16.87;72.49
30463;BME280;17256;43.618;25.336;2022-10-23T17:12:02;100904.50;;;17.13;72.82
30463;BME280;17256;43.618;25.336;2022-10-23T17:14:30;101268.28;;;19.29;72.73
30463;BME280;17256;43.618;25.336;2022-10-23T17:17:00;101020.66;;;17.58;73.45
30463;BME280;17256;43.618;25.336;2022-10-23T17:19:29;101041.50;;;17.48;74.19
30463;BME280;17256;43.618;25.336;2022-10-23T17:21:59;101026.06;;;17.52;74.22
30463;BME280;17256;43.618;25.336;2022-10-23T17:24:36;101280.72;;;19.03;74.42
30463;BME280;17256;43.618;25.336;2022-10-23T17:27:12;100846.16;;;16.35;74.88
30463;BME280;17256;43.618;25.336;2022-10-23T17:29:46;101264.72;;;18.87;75.19
30463;BME280;17256;43.618;25.336;2022-10-23T17:32:13;100859.00;;;16.29;75.28
30463;BME280;17256;43.618;25.336;2022-10-23T17:34:39;101016.63;;;17.23;76.47
30463;BME280;17256;43.618;25.336;2022-10-23T17:37:07;100864.94;;;16.33;76.29
30463;BME280;17256;43.618;25.336;2022-10-23T17:39:39;100899.84;;;16.40;76.02
30463;BME280;17256;43.618;25.336;2022-10-23T17:42:07;100861.63;;;16.24;75.71
30463;BME280;17256;43.618;25.336;2022-10-23T17:44:35;101057.03;;;17.38;75.93
30463;BME280;17256;43.618;25.336;2022-10-23T17:47:11;100868.09;;;16.18;75.44
30463;BME280;17256;43.618;25.336;2022-10-23T17:49:43;101227.16;;;18.36;75.97
30463;BME280;17256;43.618;25.336;2022-10-23T17:52:16;100876.88;;;16.33;75.40
30463;BME280;17256;43.618;25.336;2022-10-23T17:54:44;101146.09;;;17.91;75.42
30463;BME280;17256;43.618;25.336;2022-10-23T17:57:19;100843.16;;;16.18;74.91
30463;BME280;17256;43.618;25.336;2022-10-23T17:59:49;100865.81;;;16.15;74.43
30463;BME280;17256;43.618;25.336;2022-10-23T18:02:16;101031.31;;;17.12;74.77
30463;BME280;17256;43.618;25.336;2022-10-23T18:04:42;100838.31;;;15.95;74.93
30463;BME280;17256;43.618;25.336;2022-10-23T18:07:24;101146.03;;;17.79;74.66
30463;BME280;17256;43.618;25.336;2022-10-23T18:09:55;100884.59;;;16.13;74.87
30463;BME280;17256;43.618;25.336;2022-10-23T18:12:23;101111.78;;;17.49;75.58
30463;BME280;17256;43.618;25.336;2022-10-23T18:14:56;101018.34;;;16.70;75.64
30463;BME280;17256;43.618;25.336;2022-10-23T18:17:35;101123.34;;;17.46;76.20
30463;BME280;17256;43.618;25.336;2022-10-23T18:20:09;101192.34;;;17.86;76.42
30463;BME280;17256;43.618;25.336;2022-10-23T18:22:43;101094.72;;;17.09;76.44
30463;BME280;17256;43.618;25.336;2022-10-23T18:25:11;101132.75;;;17.27;77.20
30463;BME280;17256;43.618;25.336;2022-10-23T18:27:39;101030.75;;;16.60;77.48
30463;BME280;17256;43.618;25.336;2022-10-23T18:30:13;101105.63;;;17.10;77.91
30463;BME280;17256;43.618;25.336;2022-10-23T18:32:46;101295.75;;;18.24;78.86
30463;BME280;17256;43.618;25.336;2022-10-23T18:35:23;101206.25;;;17.67;78.63
30463;BME280;17256;43.618;25.336;2022-10-23T18:38:00;101052.63;;;16.75;78.18
30463;BME280;17256;43.618;25.336;2022-10-23T18:40:36;100858.06;;;15.49;78.14
30463;BME280;17256;43.618;25.336;2022-10-23T18:43:09;101036.94;;;16.63;77.93
30463;BME280;17256;43.618;25.336;2022-10-23T18:45:58;101298.84;;;18.16;79.03
30463;BME280;17256;43.618;25.336;2022-10-23T18:48:41;100904.16;;;15.68;79.09